sensor_id;sensor_type;location;lat;lon;timestamp;P1;durP1;ratioP1;P2;durP2;ratioP2
32697;SDS011;19087;51.062;3.754;2023-08-20T00:00:32;0.10;;;0.10;;
32697;SDS011;19087;51.062;3.754;2023-08-20T00:05:49;0.17;;;0.17;;
32697;SDS011;19087;51.062;3.754;2023-08-20T00:08:22;0.10;;;0.10;;
32697;SDS011;19087;51.062;3.754;2023-08-20T00:10:48;0.10;;;0.10;;
32697;SDS011;19087;51.062;3.754;2023-08-20T00:13:21;0.10;;;0.10;;
32697;SDS011;19087;51.062;3.754;2023-08-20T00:15:48;0.10;;;0.10;;
32697;SDS011;19087;51.062;3.754;2023-08-20T00:18:14;0.10;;;0.10;;
32697;SDS011;19087;51.062;3.754;2023-08-20T00:20:40;0.10;;;0.10;;
32697;SDS011;19087;51.062;3.754;2023-08-20T00:23:06;0.10;;;0.10;;
32697;SDS011;19087;51.062;3.754;2023-08-20T00:25:35;0.10;;;0.10;;
32697;SDS011;19087;51.062;3.754;2023-08-20T00:28:01;0.10;;;0.10;;
32697;SDS011;19087;51.062;3.754;2023-08-20T00:30:30;0.10;;;0.10;;
32697;SDS011;19087;51.062;3.754;2023-08-20T00:32:58;0.10;;;0.10;;
32697;SDS011;19087;51.062;3.754;2023-08-20T00:35:25;0.10;;;0.10;;
32697;SDS011;19087;51.062;3.754;2023-08-20T00:38:05;0.10;;;0.10;;
32697;SDS011;19087;51.062;3.754;2023-08-20T00:40:32;0.10;;;0.10;;
32697;SDS011;19087;51.062;3.754;2023-08-20T00:42:59;0.10;;;0.10;;
32697;SDS011;19087;51.062;3.754;2023-08-20T00:45:31;0.10;;;0.10;;
32697;SDS011;19087;51.062;3.754;2023-08-20T00:47:59;0.10;;;0.10;;
32697;SDS011;19087;51.062;3.754;2023-08-20T00:50:25;0.10;;;0.10;;
32697;SDS011;19087;51.062;3.754;2023-08-20T00:52:51;0.10;;;0.10;;
32697;SDS011;19087;51.062;3.754;2023-08-20T00:55:16;0.10;;;0.10;;
32697;SDS011;19087;51.062;3.754;2023-08-20T00:57:43;0.00;;;0.00;;
32697;SDS011;19087;51.062;3.754;2023-08-20T01:05:08;0.10;;;0.10;;
32697;SDS011;19087;51.062;3.754;2023-08-20T01:07:53;0.10;;;0.10;;
32697;SDS011;19087;51.062;3.754;2023-08-20T01:10:47;0.10;;;0.10;;
32697;SDS011;19087;51.062;3.754;2023-08-20T01:13:28;0.10;;;0.10;;
32697;SDS011;19087;51.062;3.754;2023-08-20T01:15:54;0.10;;;0.10;;
32697;SDS011;19087;51.062;3.754;2023-08-20T01:18:19;0.10;;;0.10;;
32697;SDS011;19087;51.062;3.754;2023-08-20T01:20:53;0.10;;;0.10;;
32697;SDS011;19087;51.062;3.754;2023-08-20T01:28:46;0.10;;;0.10;;
32697;SDS011;19087;51.062;3.754;2023-08-20T01:31:14;0.10;;;0.10;;
32697;SDS011;19087;51.062;3.754;2023-08-20T01:33:40;0.10;;;0.10;;
32697;SDS011;19087;51.062;3.754;2023-08-20T01:36:10;0.10;;;0.10;;
32697;SDS011;19087;51.062;3.754;2023-08-20T01:38:41;0.10;;;0.10;;
32697;SDS011;19087;51.062;3.754;2023-08-20T01:41:09;0.10;;;0.10;;
32697;SDS011;19087;51.062;3.754;2023-08-20T01:43:36;0.10;;;0.10;;
32697;SDS011;19087;51.062;3.754;2023-08-20T01:46:02;0.10;;;0.10;;
32697;SDS011;19087;51.062;3.754;2023-08-20T01:48:29;0.10;;;0.10;;
32697;SDS011;19087;51.062;3.754;2023-08-20T01:50:54;0.10;;;0.10;;
32697;SDS011;19087;51.062;3.754;2023-08-20T01:53:22;0.10;;;0.10;;
32697;SDS011;19087;51.062;3.754;2023-08-20T01:58:38;0.10;;;0.10;;
32697;SDS011;19087;51.062;3.754;2023-08-20T02:01:04;0.10;;;0.10;;
32697;SDS011;19087;51.062;3.754;2023-08-20T02:03:31;0.10;;;0.10;;
32697;SDS011;19087;51.062;3.754;2023-08-20T02:05:57;0.10;;;0.10;;
32697;SDS011;19087;51.062;3.754;2023-08-20T02:08:26;0.10;;;0.10;;
32697;SDS011;19087;51.062;3.754;2023-08-20T02:10:59;0.10;;;0.10;;
32697;SDS011;19087;51.062;3.754;2023-08-20T02:13:28;0.10;;;0.10;;
32697;SDS011;19087;51.062;3.754;2023-08-20T02:15:59;0.10;;;0.10;;
32697;SDS011;19087;51.062;3.754;2023-08-20T02:18:25;0.10;;;0.10;;
32697;SDS011;19087;51.062;3.754;2023-08-20T02:20:50;0.10;;;0.10;;
32697;SDS011;19087;51.062;3.754;2023-08-20T02:23:19;0.10;;;0.10;;
32697;SDS011;19087;51.062;3.754;2023-08-20T02:25:46;0.10;;;0.10;;
32697;SDS011;19087;51.062;3.754;2023-08-20T02:28:13;0.10;;;0.10;;
32697;SDS011;19087;51.062;3.754;2023-08-20T02:30:40;0.10;;;0.10;;
32697;SDS011;19087;51.062;3.754;2023-08-20T02:33:06;0.10;;;0.10;;
32697;SDS011;19087;51.062;3.754;2023-08-20T02:35:32;0.10;;;0.10;;
32697;SDS011;19087;51.062;3.754;2023-08-20T02:37:58;0.10;;;0.10;;
32697;SDS011;19087;51.062;3.754;2023-08-20T02:40:30;0.10;;;0.10;;
32697;SDS011;19087;51.062;3.754;2023-08-20T02:42:56;0.10;;;0.10;;
32697;SDS011;19087;51.062;3.754;2023-08-20T02:45:23;0.10;;;0.10;;
32697;SDS011;19087;51.062;3.754;2023-08-20T02:47:49;0.10;;;0.10;;
32697;SDS011;19087;51.062;3.754;2023-08-20T02:50:15;0.17;;;0.17;;
32697;SDS011;19087;51.062;3.754;2023-08-20T02:52:45;0.10;;;0.10;;
32697;SDS011;19087;51.062;3.754;2023-08-20T02:55:11;0.10;;;0.10;;
32697;SDS011;19087;51.062;3.754;2023-08-20T02:57:38;0.10;;;0.10;;
32697;SDS011;19087;51.062;3.754;2023-08-20T03:05:58;0.10;;;0.10;;
32697;SDS011;19087;51.062;3.754;2023-08-20T03:08:24;0.20;;;0.20;;
32697;SDS011;19087;51.062;3.754;2023-08-20T03:10:51;0.10;;;0.10;;
32697;SDS011;19087;51.062;3.754;2023-08-20T03:13:18;0.20;;;0.20;;
32697;SDS011;19087;51.062;3.754;2023-08-20T03:15:43;0.10;;;0.10;;
32697;SDS011;19087;51.062;3.754;2023-08-20T03:18:09;0.10;;;0.10;;
32697;SDS011;19087;51.062;3.754;2023-08-20T03:20:35;0.10;;;0.10;;
32697;SDS011;19087;51.062;3.754;2023-08-20T03:23:00;0.10;;;0.10;;
32697;SDS011;19087;51.062;3.754;2023-08-20T03:25:27;0.13;;;0.13;;
32697;SDS011;19087;51.062;3.754;2023-08-20T03:27:53;0.10;;;0.10;;
32697;SDS011;19087;51.062;3.754;2023-08-20T03:30:19;0.10;;;0.10;;
32697;SDS011;19087;51.062;3.754;2023-08-20T03:32:46;0.17;;;0.17;;
32697;SDS011;19087;51.062;3.754;2023-08-20T03:35:12;0.10;;;0.10;;
32697;SDS011;19087;51.062;3.754;2023-08-20T03:37:37;0.10;;;0.10;;
32697;SDS011;19087;51.062;3.754;2023-08-20T03:40:03;0.10;;;0.10;;
32697;SDS011;19087;51.062;3.754;2023-08-20T03:42:30;0.10;;;0.10;;
32697;SDS011;19087;51.062;3.754;2023-08-20T03:45:02;0.10;;;0.10;;
32697;SDS011;19087;51.062;3.754;2023-08-20T03:47:28;0.10;;;0.10;;
32697;SDS011;19087;51.062;3.754;2023-08-20T03:49:54;0.10;;;0.10;;
32697;SDS011;19087;51.062;3.754;2023-08-20T03:52:19;0.20;;;0.20;;
32697;SDS011;19087;51.062;3.754;2023-08-20T03:54:45;0.10;;;0.10;;
32697;SDS011;19087;51.062;3.754;2023-08-20T03:57:11;0.20;;;0.20;;
32697;SDS011;19087;51.062;3.754;2023-08-20T03:59:37;0.20;;;0.20;;
32697;SDS011;19087;51.062;3.754;2023-08-20T04:02:03;0.10;;;0.10;;
32697;SDS011;19087;51.062;3.754;2023-08-20T04:04:29;0.10;;;0.10;;
32697;SDS011;19087;51.062;3.754;2023-08-20T04:06:55;0.10;;;0.10;;
32697;SDS011;19087;51.062;3.754;2023-08-20T04:09:20;0.10;;;0.10;;
32697;SDS011;19087;51.062;3.754;2023-08-20T04:11:46;0.20;;;0.20;;
32697;SDS011;19087;51.062;3.754;2023-08-20T04:14:12;0.10;;;0.10;;
32697;SDS011;19087;51.062;3.754;2023-08-20T04:16:38;0.10;;;0.10;;
32697;SDS011;19087;51.062;3.754;2023-08-20T04:19:05;0.10;;;0.10;;
32697;SDS011;19087;51.062;3.754;2023-08-20T04:21:30;0.10;;;0.10;;
32697;SDS011;19087;51.062;3.754;2023-08-20T04:24:02;0.10;;;0.10;;
32697;SDS011;19087;51.062;3.754;2023-08-20T04:26:28;0.10;;;0.10;;
32697;SDS011;19087;51.062;3.754;2023-08-20T04:28:53;0.20;;;0.20;;
32697;SDS011;19087;51.062;3.754;2023-08-20T04:31:19;0.20;;;0.20;;
32697;SDS011;19087;51.062;3.754;2023-08-20T04:33:45;0.20;;;0.20;;
32697;SDS011;19087;51.062;3.754;2023-08-20T04:36:11;0.10;;;0.10;;
32697;SDS011;19087;51.062;3.754;2023-08-20T04:38:37;0.10;;;0.10;;
32697;SDS011;19087;51.062;3.754;2023-08-20T04:41:03;0.10;;;0.10;;
32697;SDS011;19087;51.062;3.754;2023-08-20T04:43:36;0.10;;;0.10;;
32697;SDS011;19087;51.062;3.754;2023-08-20T04:46:02;0.17;;;0.17;;
32697;SDS011;19087;51.062;3.754;2023-08-20T04:48:28;0.10;;;0.10;;
32697;SDS011;19087;51.062;3.754;2023-08-20T04:50:54;0.17;;;0.17;;
32697;SDS011;19087;51.062;3.754;2023-08-20T04:53:22;0.10;;;0.10;;
32697;SDS011;19087;51.062;3.754;2023-08-20T04:55:49;0.10;;;0.10;;
32697;SDS011;19087;51.062;3.754;2023-08-20T04:58:15;0.13;;;0.13;;
32697;SDS011;19087;51.062;3.754;2023-08-20T05:03:11;0.15;;;0.15;;
32697;SDS011;19087;51.062;3.754;2023-08-20T05:05:36;0.15;;;0.15;;
32697;SDS011;19087;51.062;3.754;2023-08-20T05:08:03;0.20;;;0.20;;
32697;SDS011;19087;51.062;3.754;2023-08-20T05:10:31;0.17;;;0.17;;
32697;SDS011;19087;51.062;3.754;2023-08-20T05:13:00;0.20;;;0.20;;
32697;SDS011;19087;51.062;3.754;2023-08-20T05:15:29;0.10;;;0.10;;
32697;SDS011;19087;51.062;3.754;2023-08-20T05:17:57;0.20;;;0.20;;
32697;SDS011;19087;51.062;3.754;2023-08-20T05:20:29;0.10;;;0.10;;
32697;SDS011;19087;51.062;3.754;2023-08-20T05:22:55;0.20;;;0.20;;
32697;SDS011;19087;51.062;3.754;2023-08-20T05:25:22;0.20;;;0.20;;
32697;SDS011;19087;51.062;3.754;2023-08-20T05:27:47;0.20;;;0.20;;
32697;SDS011;19087;51.062;3.754;2023-08-20T05:30:15;0.10;;;0.10;;
32697;SDS011;19087;51.062;3.754;2023-08-20T05:32:43;0.20;;;0.20;;
32697;SDS011;19087;51.062;3.754;2023-08-20T05:35:10;0.10;;;0.10;;
32697;SDS011;19087;51.062;3.754;2023-08-20T05:37:36;0.10;;;0.10;;
32697;SDS011;19087;51.062;3.754;2023-08-20T05:40:02;0.10;;;0.10;;
32697;SDS011;19087;51.062;3.754;2023-08-20T05:42:29;0.17;;;0.17;;
32697;SDS011;19087;51.062;3.754;2023-08-20T05:44:54;0.10;;;0.10;;
32697;SDS011;19087;51.062;3.754;2023-08-20T05:47:20;0.20;;;0.20;;
32697;SDS011;19087;51.062;3.754;2023-08-20T05:49:47;0.20;;;0.20;;
32697;SDS011;19087;51.062;3.754;2023-08-20T05:52:12;0.13;;;0.13;;
32697;SDS011;19087;51.062;3.754;2023-08-20T05:54:41;0.10;;;0.10;;
32697;SDS011;19087;51.062;3.754;2023-08-20T05:57:09;0.20;;;0.20;;
32697;SDS011;19087;51.062;3.754;2023-08-20T05:59:36;0.10;;;0.10;;
32697;SDS011;19087;51.062;3.754;2023-08-20T06:02:02;0.20;;;0.20;;
32697;SDS011;19087;51.062;3.754;2023-08-20T06:04:29;0.10;;;0.10;;
32697;SDS011;19087;51.062;3.754;2023-08-20T06:06:55;0.10;;;0.10;;
32697;SDS011;19087;51.062;3.754;2023-08-20T06:09:20;0.20;;;0.20;;
32697;SDS011;19087;51.062;3.754;2023-08-20T06:11:47;0.10;;;0.10;;
32697;SDS011;19087;51.062;3.754;2023-08-20T06:14:14;0.10;;;0.10;;
32697;SDS011;19087;51.062;3.754;2023-08-20T06:16:40;0.10;;;0.10;;
32697;SDS011;19087;51.062;3.754;2023-08-20T06:19:07;0.10;;;0.10;;
32697;SDS011;19087;51.062;3.754;2023-08-20T06:21:33;0.10;;;0.10;;
32697;SDS011;19087;51.062;3.754;2023-08-20T06:23:59;0.10;;;0.10;;
32697;SDS011;19087;51.062;3.754;2023-08-20T06:26:26;0.13;;;0.13;;
32697;SDS011;19087;51.062;3.754;2023-08-20T06:28:52;0.10;;;0.10;;
32697;SDS011;19087;51.062;3.754;2023-08-20T06:31:18;0.10;;;0.10;;
32697;SDS011;19087;51.062;3.754;2023-08-20T06:33:44;0.00;;;0.00;;
32697;SDS011;19087;51.062;3.754;2023-08-20T06:36:09;0.00;;;0.00;;
32697;SDS011;19087;51.062;3.754;2023-08-20T06:38:35;0.00;;;0.00;;
32697;SDS011;19087;51.062;3.754;2023-08-20T06:41:01;0.00;;;0.00;;
32697;SDS011;19087;51.062;3.754;2023-08-20T06:43:27;0.00;;;0.00;;
32697;SDS011;19087;51.062;3.754;2023-08-20T06:45:52;0.00;;;0.00;;
32697;SDS011;19087;51.062;3.754;2023-08-20T06:48:20;0.00;;;0.00;;
32697;SDS011;19087;51.062;3.754;2023-08-20T06:50:50;0.00;;;0.00;;
32697;SDS011;19087;51.062;3.754;2023-08-20T06:53:18;0.00;;;0.00;;
32697;SDS011;19087;51.062;3.754;2023-08-20T06:55:43;0.00;;;0.00;;
32697;SDS011;19087;51.062;3.754;2023-08-20T06:58:09;0.00;;;0.00;;
32697;SDS011;19087;51.062;3.754;2023-08-20T07:00:35;0.00;;;0.00;;
32697;SDS011;19087;51.062;3.754;2023-08-20T07:03:00;0.00;;;0.00;;
32697;SDS011;19087;51.062;3.754;2023-08-20T07:05:26;0.00;;;0.00;;
32697;SDS011;19087;51.062;3.754;2023-08-20T07:07:55;0.00;;;0.00;;
32697;SDS011;19087;51.062;3.754;2023-08-20T07:10:21;0.00;;;0.00;;
32697;SDS011;19087;51.062;3.754;2023-08-20T07:12:47;0.00;;;0.00;;
32697;SDS011;19087;51.062;3.754;2023-08-20T07:15:13;0.00;;;0.00;;
32697;SDS011;19087;51.062;3.754;2023-08-20T07:17:39;0.00;;;0.00;;
32697;SDS011;19087;51.062;3.754;2023-08-20T07:20:05;0.00;;;0.00;;
32697;SDS011;19087;51.062;3.754;2023-08-20T07:22:31;0.00;;;0.00;;
32697;SDS011;19087;51.062;3.754;2023-08-20T07:24:57;0.00;;;0.00;;
32697;SDS011;19087;51.062;3.754;2023-08-20T07:27:23;0.00;;;0.00;;
32697;SDS011;19087;51.062;3.754;2023-08-20T07:29:49;0.00;;;0.00;;
32697;SDS011;19087;51.062;3.754;2023-08-20T07:32:15;0.00;;;0.00;;
32697;SDS011;19087;51.062;3.754;2023-08-20T07:34:41;0.10;;;0.10;;
32697;SDS011;19087;51.062;3.754;2023-08-20T07:37:06;0.00;;;0.00;;
32697;SDS011;19087;51.062;3.754;2023-08-20T07:39:33;0.10;;;0.10;;
32697;SDS011;19087;51.062;3.754;2023-08-20T07:41:58;0.10;;;0.10;;
32697;SDS011;19087;51.062;3.754;2023-08-20T07:44:25;0.08;;;0.08;;
32697;SDS011;19087;51.062;3.754;2023-08-20T07:46:52;0.10;;;0.10;;
32697;SDS011;19087;51.062;3.754;2023-08-20T07:49:19;0.03;;;0.03;;
32697;SDS011;19087;51.062;3.754;2023-08-20T07:51:45;0.10;;;0.10;;
32697;SDS011;19087;51.062;3.754;2023-08-20T07:54:11;0.10;;;0.10;;
32697;SDS011;19087;51.062;3.754;2023-08-20T07:56:37;0.10;;;0.10;;
32697;SDS011;19087;51.062;3.754;2023-08-20T07:59:08;0.10;;;0.10;;
32697;SDS011;19087;51.062;3.754;2023-08-20T08:01:35;0.10;;;0.10;;
32697;SDS011;19087;51.062;3.754;2023-08-20T08:04:01;0.10;;;0.10;;
32697;SDS011;19087;51.062;3.754;2023-08-20T08:06:27;0.10;;;0.10;;
32697;SDS011;19087;51.062;3.754;2023-08-20T08:08:53;0.10;;;0.10;;
32697;SDS011;19087;51.062;3.754;2023-08-20T08:11:21;0.10;;;0.10;;
32697;SDS011;19087;51.062;3.754;2023-08-20T08:13:47;0.10;;;0.10;;
32697;SDS011;19087;51.062;3.754;2023-08-20T08:16:14;0.10;;;0.10;;
32697;SDS011;19087;51.062;3.754;2023-08-20T08:18:41;0.10;;;0.10;;
32697;SDS011;19087;51.062;3.754;2023-08-20T08:21:06;0.10;;;0.10;;
32697;SDS011;19087;51.062;3.754;2023-08-20T08:23:32;0.10;;;0.10;;
32697;SDS011;19087;51.062;3.754;2023-08-20T08:25:59;0.10;;;0.10;;
32697;SDS011;19087;51.062;3.754;2023-08-20T08:28:25;0.10;;;0.10;;
32697;SDS011;19087;51.062;3.754;2023-08-20T08:30:50;0.10;;;0.10;;
32697;SDS011;19087;51.062;3.754;2023-08-20T08:33:16;0.10;;;0.10;;
32697;SDS011;19087;51.062;3.754;2023-08-20T08:35:42;0.10;;;0.10;;
32697;SDS011;19087;51.062;3.754;2023-08-20T08:38:07;0.10;;;0.10;;
32697;SDS011;19087;51.062;3.754;2023-08-20T08:40:33;0.10;;;0.10;;
32697;SDS011;19087;51.062;3.754;2023-08-20T08:43:00;0.10;;;0.10;;
32697;SDS011;19087;51.062;3.754;2023-08-20T08:45:27;0.10;;;0.10;;
32697;SDS011;19087;51.062;3.754;2023-08-20T08:47:55;0.10;;;0.10;;
32697;SDS011;19087;51.062;3.754;2023-08-20T08:50:22;0.10;;;0.10;;
32697;SDS011;19087;51.062;3.754;2023-08-20T08:52:51;0.05;;;0.05;;
32697;SDS011;19087;51.062;3.754;2023-08-20T08:55:22;0.00;;;0.00;;
32697;SDS011;19087;51.062;3.754;2023-08-20T08:57:47;0.03;;;0.03;;
32697;SDS011;19087;51.062;3.754;2023-08-20T09:00:13;0.00;;;0.00;;
32697;SDS011;19087;51.062;3.754;2023-08-20T09:02:39;0.00;;;0.00;;
32697;SDS011;19087;51.062;3.754;2023-08-20T09:05:06;0.00;;;0.00;;
32697;SDS011;19087;51.062;3.754;2023-08-20T09:07:32;0.00;;;0.00;;
32697;SDS011;19087;51.062;3.754;2023-08-20T09:09:58;0.00;;;0.00;;
32697;SDS011;19087;51.062;3.754;2023-08-20T09:12:25;0.00;;;0.00;;
32697;SDS011;19087;51.062;3.754;2023-08-20T09:14:52;0.00;;;0.00;;
32697;SDS011;19087;51.062;3.754;2023-08-20T09:17:24;0.00;;;0.00;;
32697;SDS011;19087;51.062;3.754;2023-08-20T09:19:53;0.00;;;0.00;;
32697;SDS011;19087;51.062;3.754;2023-08-20T09:22:26;0.00;;;0.00;;
32697;SDS011;19087;51.062;3.754;2023-08-20T09:24:53;0.00;;;0.00;;
32697;SDS011;19087;51.062;3.754;2023-08-20T09:27:20;0.00;;;0.00;;
32697;SDS011;19087;51.062;3.754;2023-08-20T09:29:47;0.00;;;0.00;;
32697;SDS011;19087;51.062;3.754;2023-08-20T09:37:19;0.00;;;0.00;;
32697;SDS011;19087;51.062;3.754;2023-08-20T09:39:46;0.00;;;0.00;;
32697;SDS011;19087;51.062;3.754;2023-08-20T09:42:12;0.00;;;0.00;;
32697;SDS011;19087;51.062;3.754;2023-08-20T09:44:40;0.00;;;0.00;;
32697;SDS011;19087;51.062;3.754;2023-08-20T09:47:11;0.00;;;0.00;;
32697;SDS011;19087;51.062;3.754;2023-08-20T09:49:42;0.00;;;0.00;;
32697;SDS011;19087;51.062;3.754;2023-08-20T09:52:09;0.00;;;0.00;;
32697;SDS011;19087;51.062;3.754;2023-08-20T09:57:43;0.00;;;0.00;;
32697;SDS011;19087;51.062;3.754;2023-08-20T10:00:08;0.00;;;0.00;;
32697;SDS011;19087;51.062;3.754;2023-08-20T10:02:39;0.00;;;0.00;;
32697;SDS011;19087;51.062;3.754;2023-08-20T10:05:08;0.00;;;0.00;;
32697;SDS011;19087;51.062;3.754;2023-08-20T10:07:38;0.00;;;0.00;;
32697;SDS011;19087;51.062;3.754;2023-08-20T10:10:06;0.00;;;0.00;;
32697;SDS011;19087;51.062;3.754;2023-08-20T10:12:33;0.00;;;0.00;;
32697;SDS011;19087;51.062;3.754;2023-08-20T10:15:01;0.00;;;0.00;;
32697;SDS011;19087;51.062;3.754;2023-08-20T10:17:31;0.00;;;0.00;;
32697;SDS011;19087;51.062;3.754;2023-08-20T10:19:58;0.00;;;0.00;;
32697;SDS011;19087;51.062;3.754;2023-08-20T10:22:43;0.10;;;0.10;;
32697;SDS011;19087;51.062;3.754;2023-08-20T10:25:10;0.00;;;0.00;;
32697;SDS011;19087;51.062;3.754;2023-08-20T10:27:40;0.00;;;0.00;;
32697;SDS011;19087;51.062;3.754;2023-08-20T10:30:10;0.00;;;0.00;;
32697;SDS011;19087;51.062;3.754;2023-08-20T10:32:48;0.00;;;0.00;;
32697;SDS011;19087;51.062;3.754;2023-08-20T10:35:15;0.00;;;0.00;;
32697;SDS011;19087;51.062;3.754;2023-08-20T10:43:33;0.00;;;0.00;;
32697;SDS011;19087;51.062;3.754;2023-08-20T10:48:33;0.00;;;0.00;;
32697;SDS011;19087;51.062;3.754;2023-08-20T10:51:46;0.00;;;0.00;;
32697;SDS011;19087;51.062;3.754;2023-08-20T10:56:54;0.00;;;0.00;;
32697;SDS011;19087;51.062;3.754;2023-08-20T11:01:56;0.00;;;0.00;;
32697;SDS011;19087;51.062;3.754;2023-08-20T11:04:24;0.00;;;0.00;;
32697;SDS011;19087;51.062;3.754;2023-08-20T11:06:59;0.00;;;0.00;;
32697;SDS011;19087;51.062;3.754;2023-08-20T11:09:27;0.10;;;0.10;;
32697;SDS011;19087;51.062;3.754;2023-08-20T11:11:54;0.00;;;0.00;;
32697;SDS011;19087;51.062;3.754;2023-08-20T11:14:20;0.00;;;0.00;;
32697;SDS011;19087;51.062;3.754;2023-08-20T11:16:47;0.00;;;0.00;;
32697;SDS011;19087;51.062;3.754;2023-08-20T11:19:14;0.10;;;0.10;;
32697;SDS011;19087;51.062;3.754;2023-08-20T11:21:44;0.00;;;0.00;;
32697;SDS011;19087;51.062;3.754;2023-08-20T11:24:11;0.00;;;0.00;;
32697;SDS011;19087;51.062;3.754;2023-08-20T11:26:41;0.08;;;0.08;;
32697;SDS011;19087;51.062;3.754;2023-08-20T11:29:12;0.00;;;0.00;;
32697;SDS011;19087;51.062;3.754;2023-08-20T11:31:41;0.00;;;0.00;;
32697;SDS011;19087;51.062;3.754;2023-08-20T11:34:08;0.00;;;0.00;;
32697;SDS011;19087;51.062;3.754;2023-08-20T11:36:33;0.00;;;0.00;;
32697;SDS011;19087;51.062;3.754;2023-08-20T11:39:00;0.00;;;0.00;;
32697;SDS011;19087;51.062;3.754;2023-08-20T11:41:28;0.00;;;0.00;;
32697;SDS011;19087;51.062;3.754;2023-08-20T11:43:54;0.00;;;0.00;;
32697;SDS011;19087;51.062;3.754;2023-08-20T11:46:21;0.00;;;0.00;;
32697;SDS011;19087;51.062;3.754;2023-08-20T11:49:04;0.00;;;0.00;;
32697;SDS011;19087;51.062;3.754;2023-08-20T11:54:18;0.00;;;0.00;;
32697;SDS011;19087;51.062;3.754;2023-08-20T11:56:48;0.00;;;0.00;;
32697;SDS011;19087;51.062;3.754;2023-08-20T11:59:15;0.00;;;0.00;;
32697;SDS011;19087;51.062;3.754;2023-08-20T12:01:42;0.03;;;0.03;;
32697;SDS011;19087;51.062;3.754;2023-08-20T12:04:09;0.08;;;0.08;;
32697;SDS011;19087;51.062;3.754;2023-08-20T12:06:36;0.00;;;0.00;;
32697;SDS011;19087;51.062;3.754;2023-08-20T12:09:18;0.10;;;0.10;;
32697;SDS011;19087;51.062;3.754;2023-08-20T12:11:51;0.00;;;0.00;;
32697;SDS011;19087;51.062;3.754;2023-08-20T12:14:18;0.00;;;0.00;;
32697;SDS011;19087;51.062;3.754;2023-08-20T12:16:44;0.00;;;0.00;;
32697;SDS011;19087;51.062;3.754;2023-08-20T12:19:10;0.00;;;0.00;;
32697;SDS011;19087;51.062;3.754;2023-08-20T12:21:36;0.00;;;0.00;;
32697;SDS011;19087;51.062;3.754;2023-08-20T12:24:02;0.00;;;0.00;;
32697;SDS011;19087;51.062;3.754;2023-08-20T12:26:30;0.00;;;0.00;;
32697;SDS011;19087;51.062;3.754;2023-08-20T12:28:56;0.03;;;0.03;;
32697;SDS011;19087;51.062;3.754;2023-08-20T12:31:22;0.00;;;0.00;;
32697;SDS011;19087;51.062;3.754;2023-08-20T12:33:47;0.00;;;0.00;;
32697;SDS011;19087;51.062;3.754;2023-08-20T12:36:14;0.00;;;0.00;;
32697;SDS011;19087;51.062;3.754;2023-08-20T12:38:40;0.00;;;0.00;;
32697;SDS011;19087;51.062;3.754;2023-08-20T12:41:07;0.00;;;0.00;;
32697;SDS011;19087;51.062;3.754;2023-08-20T12:43:32;0.00;;;0.00;;
32697;SDS011;19087;51.062;3.754;2023-08-20T12:45:58;0.00;;;0.00;;
32697;SDS011;19087;51.062;3.754;2023-08-20T12:48:24;0.00;;;0.00;;
32697;SDS011;19087;51.062;3.754;2023-08-20T12:50:50;0.00;;;0.00;;
32697;SDS011;19087;51.062;3.754;2023-08-20T12:53:16;0.00;;;0.00;;
32697;SDS011;19087;51.062;3.754;2023-08-20T12:55:41;0.00;;;0.00;;
32697;SDS011;19087;51.062;3.754;2023-08-20T12:58:07;0.00;;;0.00;;
32697;SDS011;19087;51.062;3.754;2023-08-20T13:00:33;0.00;;;0.00;;
32697;SDS011;19087;51.062;3.754;2023-08-20T13:02:59;0.00;;;0.00;;
32697;SDS011;19087;51.062;3.754;2023-08-20T13:05:25;0.00;;;0.00;;
32697;SDS011;19087;51.062;3.754;2023-08-20T13:07:57;0.00;;;0.00;;
32697;SDS011;19087;51.062;3.754;2023-08-20T13:10:24;0.00;;;0.00;;
32697;SDS011;19087;51.062;3.754;2023-08-20T13:12:53;0.00;;;0.00;;
32697;SDS011;19087;51.062;3.754;2023-08-20T13:15:23;0.00;;;0.00;;
32697;SDS011;19087;51.062;3.754;2023-08-20T13:17:51;0.00;;;0.00;;
32697;SDS011;19087;51.062;3.754;2023-08-20T13:20:17;0.00;;;0.00;;
32697;SDS011;19087;51.062;3.754;2023-08-20T13:22:49;0.00;;;0.00;;
32697;SDS011;19087;51.062;3.754;2023-08-20T13:25:16;0.00;;;0.00;;
32697;SDS011;19087;51.062;3.754;2023-08-20T13:27:44;0.00;;;0.00;;
32697;SDS011;19087;51.062;3.754;2023-08-20T13:30:12;0.00;;;0.00;;
32697;SDS011;19087;51.062;3.754;2023-08-20T13:32:38;0.00;;;0.00;;
32697;SDS011;19087;51.062;3.754;2023-08-20T13:35:04;0.00;;;0.00;;
32697;SDS011;19087;51.062;3.754;2023-08-20T13:37:31;0.00;;;0.00;;
32697;SDS011;19087;51.062;3.754;2023-08-20T13:39:57;0.00;;;0.00;;
32697;SDS011;19087;51.062;3.754;2023-08-20T13:42:24;0.00;;;0.00;;
32697;SDS011;19087;51.062;3.754;2023-08-20T13:44:51;0.00;;;0.00;;
32697;SDS011;19087;51.062;3.754;2023-08-20T13:47:17;0.00;;;0.00;;
32697;SDS011;19087;51.062;3.754;2023-08-20T13:49:43;0.00;;;0.00;;
32697;SDS011;19087;51.062;3.754;2023-08-20T13:52:09;0.00;;;0.00;;
32697;SDS011;19087;51.062;3.754;2023-08-20T13:54:35;0.10;;;0.10;;
32697;SDS011;19087;51.062;3.754;2023-08-20T13:57:03;0.00;;;0.00;;
32697;SDS011;19087;51.062;3.754;2023-08-20T13:59:29;0.00;;;0.00;;
32697;SDS011;19087;51.062;3.754;2023-08-20T14:01:58;0.00;;;0.00;;
32697;SDS011;19087;51.062;3.754;2023-08-20T14:04:24;0.00;;;0.00;;
32697;SDS011;19087;51.062;3.754;2023-08-20T14:06:49;0.00;;;0.00;;
32697;SDS011;19087;51.062;3.754;2023-08-20T14:09:15;0.00;;;0.00;;
32697;SDS011;19087;51.062;3.754;2023-08-20T14:11:44;0.00;;;0.00;;
32697;SDS011;19087;51.062;3.754;2023-08-20T14:14:11;0.00;;;0.00;;
32697;SDS011;19087;51.062;3.754;2023-08-20T14:16:37;0.00;;;0.00;;
32697;SDS011;19087;51.062;3.754;2023-08-20T14:19:03;0.00;;;0.00;;
32697;SDS011;19087;51.062;3.754;2023-08-20T14:21:29;0.00;;;0.00;;
32697;SDS011;19087;51.062;3.754;2023-08-20T14:23:55;0.00;;;0.00;;
32697;SDS011;19087;51.062;3.754;2023-08-20T14:26:21;0.00;;;0.00;;
32697;SDS011;19087;51.062;3.754;2023-08-20T14:28:46;0.00;;;0.00;;
32697;SDS011;19087;51.062;3.754;2023-08-20T14:31:12;0.00;;;0.00;;
32697;SDS011;19087;51.062;3.754;2023-08-20T14:33:39;0.00;;;0.00;;
32697;SDS011;19087;51.062;3.754;2023-08-20T14:36:06;0.10;;;0.10;;
32697;SDS011;19087;51.062;3.754;2023-08-20T14:38:33;0.00;;;0.00;;
32697;SDS011;19087;51.062;3.754;2023-08-20T14:41:01;0.00;;;0.00;;
32697;SDS011;19087;51.062;3.754;2023-08-20T14:43:28;0.00;;;0.00;;
32697;SDS011;19087;51.062;3.754;2023-08-20T14:45:54;0.00;;;0.00;;
32697;SDS011;19087;51.062;3.754;2023-08-20T14:48:24;0.00;;;0.00;;
32697;SDS011;19087;51.062;3.754;2023-08-20T14:50:50;0.00;;;0.00;;
32697;SDS011;19087;51.062;3.754;2023-08-20T14:53:18;0.10;;;0.10;;
32697;SDS011;19087;51.062;3.754;2023-08-20T14:55:46;0.00;;;0.00;;
32697;SDS011;19087;51.062;3.754;2023-08-20T14:58:13;0.00;;;0.00;;
32697;SDS011;19087;51.062;3.754;2023-08-20T15:00:41;0.00;;;0.00;;
32697;SDS011;19087;51.062;3.754;2023-08-20T15:03:09;0.00;;;0.00;;
32697;SDS011;19087;51.062;3.754;2023-08-20T15:05:36;0.00;;;0.00;;
32697;SDS011;19087;51.062;3.754;2023-08-20T15:08:02;0.10;;;0.10;;
32697;SDS011;19087;51.062;3.754;2023-08-20T15:10:29;0.00;;;0.00;;
32697;SDS011;19087;51.062;3.754;2023-08-20T15:12:56;0.00;;;0.00;;
32697;SDS011;19087;51.062;3.754;2023-08-20T15:15:22;0.00;;;0.00;;
32697;SDS011;19087;51.062;3.754;2023-08-20T15:17:47;0.00;;;0.00;;
32697;SDS011;19087;51.062;3.754;2023-08-20T15:20:15;0.00;;;0.00;;
32697;SDS011;19087;51.062;3.754;2023-08-20T15:22:47;0.00;;;0.00;;
32697;SDS011;19087;51.062;3.754;2023-08-20T15:25:13;0.10;;;0.10;;
32697;SDS011;19087;51.062;3.754;2023-08-20T15:27:40;0.00;;;0.00;;
32697;SDS011;19087;51.062;3.754;2023-08-20T15:30:08;0.00;;;0.00;;
32697;SDS011;19087;51.062;3.754;2023-08-20T15:32:36;0.00;;;0.00;;
32697;SDS011;19087;51.062;3.754;2023-08-20T15:35:02;0.00;;;0.00;;
32697;SDS011;19087;51.062;3.754;2023-08-20T15:37:34;0.00;;;0.00;;